Time;durP1;ratioP1;P1;durP2;ratioP2;P2;SDS_P1;SDS_P2;PMS_P1;PMS_P2;Temp;Humidity;BMP_temperature;BMP_pressure;BME280_temperature;BME280_humidity;BME280_pressure;Samples;Min_cycle;Max_cycle;Signal;HPM_P1;HPM_P2
2023/10/20 00:01:50;;;;;;;24.10;15.70;;;;;;;13.15;100.00;95366.84;5097611;28;20235;-81
2023/10/20 00:04:17;;;;;;;29.30;16.73;;;;;;;13.15;100.00;95351.72;5098271;28;20225;-81
2023/10/20 00:06:44;;;;;;;30.63;17.00;;;;;;;13.17;100.00;95340.94;5080296;28;20230;-81
2023/10/20 00:09:14;;;;;;;24.47;15.17;;;;;;;13.16;100.00;95344.63;5097593;28;20249;-81
2023/10/20 00:11:41;;;;;;;26.90;16.30;;;;;;;13.18;100.00;95347.88;5098103;28;20229;-81
2023/10/20 00:14:09;;;;;;;26.47;16.77;;;;;;;13.19;100.00;95352.19;5097139;28;20247;-81
2023/10/20 00:16:35;;;;;;;26.13;16.17;;;;;;;13.19;100.00;95344.22;5097676;28;20207;-81
2023/10/20 00:19:02;;;;;;;27.40;15.90;;;;;;;13.19;100.00;95339.75;5097377;28;20207;-81
2023/10/20 00:21:29;;;;;;;24.67;15.67;;;;;;;13.22;100.00;95338.56;5099552;28;20255;-81
2023/10/20 00:23:55;;;;;;;28.30;16.73;;;;;;;13.21;100.00;95337.72;5099771;28;20206;-81
2023/10/20 00:26:22;;;;;;;25.20;16.13;;;;;;;13.21;100.00;95331.63;5100551;28;20218;-82
2023/10/20 00:28:49;;;;;;;28.23;16.87;;;;;;;13.22;100.00;95342.03;5099851;28;20653;-81
2023/10/20 00:31:18;;;;;;;31.57;17.43;;;;;;;13.24;100.00;95339.19;5099901;28;20245;-81
2023/10/20 00:33:45;;;;;;;30.07;17.53;;;;;;;13.26;100.00;95339.81;5099484;28;20207;-81
2023/10/20 00:36:12;;;;;;;28.90;17.33;;;;;;;13.28;100.00;95340.44;5099745;28;20245;-81
2023/10/20 00:38:38;;;;;;;29.60;18.23;;;;;;;13.28;100.00;95340.44;5100612;28;20214;-81
2023/10/20 00:41:05;;;;;;;29.70;17.33;;;;;;;13.27;100.00;95331.66;5098959;28;20235;-81
2023/10/20 00:43:36;;;;;;;28.63;16.83;;;;;;;13.28;100.00;95324.53;5100343;28;20252;-81
2023/10/20 00:46:04;;;;;;;27.03;16.93;;;;;;;13.27;100.00;95309.63;5100032;28;20214;-81
2023/10/20 00:48:32;;;;;;;24.23;16.40;;;;;;;13.28;100.00;95300.66;5099649;28;20210;-81
2023/10/20 00:51:00;;;;;;;29.00;16.43;;;;;;;13.28;100.00;95290.91;5099614;28;20246;-81
2023/10/20 00:53:27;;;;;;;29.43;16.90;;;;;;;13.29;100.00;95287.22;5099490;28;20271;-81
2023/10/20 00:55:56;;;;;;;28.53;16.43;;;;;;;13.32;100.00;95293.97;5099538;28;20238;-81
2023/10/20 00:58:24;;;;;;;27.97;17.20;;;;;;;13.27;100.00;95294.53;5100093;28;20731;-80
2023/10/20 01:00:50;;;;;;;28.10;16.30;;;;;;;13.28;100.00;95290.06;5098887;28;20708;-81
2023/10/20 01:03:17;;;;;;;25.10;16.73;;;;;;;13.28;100.00;95298.84;5099088;28;20202;-81
2023/10/20 01:05:45;;;;;;;26.20;16.23;;;;;;;13.27;100.00;95291.88;5099888;28;20213;-80
2023/10/20 01:08:11;;;;;;;26.57;16.17;;;;;;;13.28;100.00;95288.25;5099675;28;20207;-81
2023/10/20 01:10:38;;;;;;;25.87;16.20;;;;;;;13.27;100.00;95275.97;5099146;28;20214;-81
2023/10/20 01:13:05;;;;;;;25.47;16.33;;;;;;;13.27;100.00;95268.00;5098670;28;20215;-81
2023/10/20 01:15:32;;;;;;;26.70;16.73;;;;;;;13.29;100.00;95265.19;5099692;28;20227;-81
2023/10/20 01:17:59;;;;;;;26.10;16.27;;;;;;;13.27;100.00;95262.72;5099282;28;20207;-80
2023/10/20 01:20:26;;;;;;;26.50;16.80;;;;;;;13.27;100.00;95261.91;5099079;28;20208;-81
2023/10/20 01:22:54;;;;;;;24.57;15.80;;;;;;;13.26;100.00;95254.97;5098569;28;20231;-81
2023/10/20 01:25:22;;;;;;;26.30;15.70;;;;;;;13.28;100.00;95261.72;5099095;28;20211;-81
2023/10/20 01:27:49;;;;;;;26.77;16.57;;;;;;;13.26;100.00;95249.66;5099465;28;20252;-81
2023/10/20 01:30:15;;;;;;;27.50;16.50;;;;;;;13.27;100.00;95243.34;5098258;28;20211;-81
2023/10/20 01:32:42;;;;;;;26.37;15.93;;;;;;;13.31;100.00;95242.75;5098412;28;20656;-81
2023/10/20 01:35:09;;;;;;;23.03;15.23;;;;;;;13.25;100.00;95242.69;5098792;28;20697;-81
2023/10/20 01:37:36;;;;;;;22.10;14.97;;;;;;;13.23;100.00;95239.41;5098658;28;20206;-81
2023/10/20 01:40:02;;;;;;;22.83;15.03;;;;;;;13.20;100.00;95222.06;5098122;28;20213;-81
2023/10/20 01:42:30;;;;;;;24.27;14.87;;;;;;;13.13;100.00;95212.41;5099166;28;20258;-81
2023/10/20 01:44:57;;;;;;;21.17;13.57;;;;;;;13.08;100.00;95198.94;5099607;28;20203;-81
2023/10/20 01:47:24;;;;;;;21.10;13.60;;;;;;;13.07;100.00;95198.09;5099663;28;20211;-81
2023/10/20 01:49:50;;;;;;;23.07;14.60;;;;;;;13.07;100.00;95197.28;5099935;28;20238;-81
2023/10/20 01:52:17;;;;;;;22.17;14.80;;;;;;;13.12;100.00;95194.88;5098851;28;20226;-81
2023/10/20 01:54:43;;;;;;;21.20;13.40;;;;;;;13.12;100.00;95176.31;5099738;28;20231;-81
2023/10/20 01:57:10;;;;;;;20.30;13.77;;;;;;;13.11;100.00;95161.41;5098997;28;20569;-81
2023/10/20 01:59:38;;;;;;;19.73;13.17;;;;;;;13.12;100.00;95149.78;5099360;28;20259;-81
2023/10/20 02:02:04;;;;;;;17.57;11.80;;;;;;;13.08;100.00;95136.09;5098762;28;20325;-81
2023/10/20 02:04:31;;;;;;;19.33;12.87;;;;;;;13.06;100.00;95127.53;5099169;28;20207;-81
2023/10/20 02:06:58;;;;;;;18.47;12.20;;;;;;;13.03;100.00;95113.84;5098852;28;20211;-80
2023/10/20 02:09:25;;;;;;;19.80;11.93;;;;;;;13.01;100.00;95107.94;5098645;28;20211;-81
2023/10/20 02:11:52;;;;;;;18.20;11.53;;;;;;;13.01;100.00;95102.63;5097819;28;20601;-80
2023/10/20 02:14:18;;;;;;;16.33;10.07;;;;;;;12.98;100.00;95092.41;5098433;28;20234;-81
2023/10/20 02:16:46;;;;;;;15.07;10.37;;;;;;;12.99;100.00;95081.59;5099326;28;20207;-84
2023/10/20 02:19:14;;;;;;;12.87;9.13;;;;;;;12.98;100.00;95081.78;5098315;28;20241;-80
2023/10/20 02:21:41;;;;;;;13.83;9.10;;;;;;;12.97;100.00;95080.97;5097767;28;20549;-80
2023/10/20 02:24:08;;;;;;;12.40;8.57;;;;;;;12.98;100.00;95076.50;5098308;28;20210;-81
2023/10/20 02:26:35;;;;;;;12.00;8.73;;;;;;;13.00;100.00;95067.34;5098631;28;20273;-81
2023/10/20 02:29:02;;;;;;;12.67;9.13;;;;;;;13.01;100.00;95057.56;5098571;28;20397;-81
2023/10/20 02:31:29;;;;;;;11.10;7.87;;;;;;;12.99;100.00;95054.28;5097954;28;20619;-81
2023/10/20 02:33:57;;;;;;;10.27;7.90;;;;;;;13.01;100.00;95065.53;5098270;28;20214;-81
2023/10/20 02:36:24;;;;;;;11.63;7.40;;;;;;;13.00;100.00;95042.66;5099077;28;20302;-81
2023/10/20 02:38:52;;;;;;;9.67;7.70;;;;;;;12.99;100.00;95025.94;5098865;28;20206;-81
2023/10/20 02:41:19;;;;;;;10.80;7.27;;;;;;;12.99;100.00;95023.28;5097965;28;20233;-81
2023/10/20 02:43:45;;;;;;;10.00;6.60;;;;;;;12.98;100.00;95039.38;5097771;28;20587;-81
2023/10/20 02:46:12;;;;;;;11.10;7.10;;;;;;;12.98;100.00;95044.69;5099352;28;20203;-81
2023/10/20 02:48:39;;;;;;;10.70;7.10;;;;;;;12.97;100.00;95043.06;5098556;28;20210;-81
2023/10/20 02:51:11;;;;;;;10.43;7.23;;;;;;;12.98;100.00;95047.34;5098272;28;20238;-81
2023/10/20 02:53:39;;;;;;;7.80;6.37;;;;;;;12.99;100.00;95046.31;5098598;28;20651;-81
2023/10/20 02:56:11;;;;;;;9.53;6.47;;;;;;;13.02;100.00;95053.91;5097570;28;20587;-81
2023/10/20 02:58:37;;;;;;;12.03;7.20;;;;;;;13.01;100.00;95045.13;5098552;28;20217;-81
2023/10/20 03:01:06;;;;;;;13.60;7.33;;;;;;;13.03;100.00;95050.22;5097810;28;20231;-81
2023/10/20 03:03:33;;;;;;;10.37;7.33;;;;;;;13.07;100.00;95048.84;5096865;28;20209;-81
2023/10/20 03:06:01;;;;;;;10.27;8.00;;;;;;;13.05;100.00;95061.44;5098122;28;20213;-81
2023/10/20 03:08:28;;;;;;;12.87;8.87;;;;;;;12.99;100.00;95062.22;5099187;28;20225;-81
2023/10/20 03:10:55;;;;;;;11.97;7.93;;;;;;;13.00;100.00;95063.84;5099050;28;20227;-81
2023/10/20 03:13:22;;;;;;;15.13;9.63;;;;;;;13.00;100.00;95061.22;5098992;28;20297;-81
2023/10/20 03:15:48;;;;;;;13.17;9.33;;;;;;;13.00;100.00;95047.94;5098974;28;20230;-81
2023/10/20 03:18:16;;;;;;;15.03;9.83;;;;;;;13.00;100.00;95042.66;5099439;28;20214;-81
2023/10/20 03:20:43;;;;;;;14.10;9.47;;;;;;;12.99;100.00;95031.25;5099629;28;20222;-81
2023/10/20 03:23:10;;;;;;;15.57;10.13;;;;;;;12.98;100.00;95028.78;5099136;28;20619;-81
2023/10/20 03:25:37;;;;;;;16.23;11.90;;;;;;;13.01;100.00;95023.91;5100244;28;20210;-81
2023/10/20 03:28:05;;;;;;;21.90;12.27;;;;;;;13.04;100.00;95012.94;5099678;28;20213;-81
2023/10/20 03:30:31;;;;;;;19.17;12.03;;;;;;;12.99;100.00;95004.75;5099243;28;20285;-82
2023/10/20 03:32:58;;;;;;;21.60;12.83;;;;;;;12.98;100.00;94996.97;5098247;28;20218;-81
2023/10/20 03:35:24;;;;;;;22.37;13.20;;;;;;;13.00;100.00;94987.81;5098650;28;20231;-81
2023/10/20 03:37:54;;;;;;;14.37;10.73;;;;;;;12.99;100.00;94988.00;5098220;28;20210;-81
2023/10/20 03:40:24;;;;;;;16.47;10.80;;;;;;;12.98;100.00;94989.03;5098573;28;20302;-81
2023/10/20 03:42:52;;;;;;;13.97;10.30;;;;;;;13.01;100.00;94980.69;5097965;28;20237;-81
2023/10/20 03:45:20;;;;;;;13.70;9.43;;;;;;;12.98;100.00;94970.47;5098164;28;20206;-81
2023/10/20 03:47:49;;;;;;;15.13;10.17;;;;;;;12.94;100.00;94954.13;5098783;28;20210;-81
2023/10/20 03:50:16;;;;;;;13.97;9.50;;;;;;;12.92;100.00;94966.75;5099184;28;20737;-81
2023/10/20 03:52:44;;;;;;;12.27;8.70;;;;;;;12.90;100.00;94967.97;5081368;28;20230;-81
2023/10/20 03:55:13;;;;;;;14.20;9.40;;;;;;;12.89;100.00;94950.44;5099733;28;20317;-81
2023/10/20 03:57:41;;;;;;;14.50;9.60;;;;;;;12.88;100.00;94935.53;5099820;28;20205;-81
2023/10/20 04:00:21;;;;;;;12.87;9.00;;;;;;;12.86;100.00;94925.13;5100678;28;20206;-83
2023/10/20 04:02:48;;;;;;;12.13;9.00;;;;;;;12.82;100.00;94917.75;5097366;28;20241;-81
2023/10/20 04:05:16;;;;;;;11.37;8.83;;;;;;;12.80;100.00;94914.50;5097773;28;20207;-81
2023/10/20 04:07:42;;;;;;;11.90;8.47;;;;;;;12.77;100.00;94910.41;5097981;28;20247;-81
2023/10/20 04:10:09;;;;;;;11.47;8.23;;;;;;;12.79;100.00;94910.22;5098833;28;20274;-81
2023/10/20 04:12:38;;;;;;;9.87;7.23;;;;;;;12.83;100.00;94903.53;5097715;28;20669;-81
2023/10/20 04:15:08;;;;;;;9.53;6.97;;;;;;;12.84;100.00;94900.66;5098477;28;20227;-81
2023/10/20 04:17:38;;;;;;;9.97;6.73;;;;;;;12.82;100.00;94883.31;5102183;28;20211;-82
2023/10/20 04:20:06;;;;;;;10.47;6.80;;;;;;;12.79;100.00;94875.78;5101626;28;20563;-82
2023/10/20 04:22:33;;;;;;;8.03;6.10;;;;;;;12.76;100.00;94865.56;5101079;28;20233;-81
2023/10/20 04:24:59;;;;;;;8.87;6.33;;;;;;;12.74;100.00;94847.22;5102605;28;20209;-81
2023/10/20 04:27:44;;;;;;;10.33;7.17;;;;;;;12.74;100.00;94841.09;5102493;28;20669;-81
2023/10/20 04:52:23;;;;;;;8.80;5.90;;;;;;;12.72;100.00;94779.56;5097863;28;20226;-81
2023/10/20 04:54:51;;;;;;;9.57;5.83;;;;;;;12.74;100.00;94772.22;5100598;28;20279;-81
2023/10/20 04:57:50;;;;;;;7.27;5.70;;;;;;;12.75;100.00;94763.25;5100912;28;20589;-81
2023/10/20 05:00:35;;;;;;;8.67;5.87;;;;;;;12.73;100.00;94754.69;5100198;28;20242;-81
2023/10/20 05:03:15;;;;;;;8.53;5.60;;;;;;;12.73;100.00;94744.09;5098822;28;20680;-81
2023/10/20 05:05:53;;;;;;;8.77;5.77;;;;;;;12.72;100.00;94737.97;5099416;28;20209;-81
2023/10/20 05:08:22;;;;;;;8.37;5.73;;;;;;;12.72;100.00;94731.88;5098716;28;20219;-81
2023/10/20 05:10:50;;;;;;;9.33;6.23;;;;;;;12.66;100.00;94711.47;5098946;28;20234;-81
2023/10/20 05:13:17;;;;;;;8.13;6.03;;;;;;;12.65;100.00;94700.06;5097364;28;20216;-81
2023/10/20 05:15:44;;;;;;;6.70;5.70;;;;;;;12.61;100.00;94695.38;5097474;28;20233;-82
2023/10/20 05:18:12;;;;;;;8.63;6.17;;;;;;;12.62;100.00;94694.34;5098195;28;20225;-81
2023/10/20 05:20:39;;;;;;;7.00;5.83;;;;;;;12.54;100.00;94687.41;5098970;28;20212;-80
2023/10/20 05:23:07;;;;;;;7.33;5.53;;;;;;;12.50;100.00;94672.13;5100240;28;20219;-81
2023/10/20 05:25:34;;;;;;;7.63;5.60;;;;;;;12.49;100.00;94658.06;5101512;28;20205;-81
2023/10/20 05:28:01;;;;;;;10.07;6.43;;;;;;;12.46;100.00;94647.06;5103596;28;20224;-80
2023/10/20 05:30:27;;;;;;;8.03;5.73;;;;;;;12.49;100.00;94651.94;5100512;28;20309;-81
2023/10/20 05:32:54;;;;;;;8.57;6.30;;;;;;;12.49;100.00;94654.59;5099128;28;20282;-81
2023/10/20 05:35:20;;;;;;;8.03;6.30;;;;;;;12.53;100.00;94642.59;5099719;28;20233;-81
2023/10/20 05:37:47;;;;;;;10.60;7.00;;;;;;;12.54;100.00;94646.88;5098254;28;20230;-81
2023/10/20 05:40:15;;;;;;;9.83;7.03;;;;;;;12.56;100.00;94650.13;5098254;28;20217;-81
2023/10/20 05:42:41;;;;;;;9.40;6.90;;;;;;;12.58;100.00;94645.44;5097610;28;20268;-81
2023/10/20 05:45:10;;;;;;;10.40;6.80;;;;;;;12.57;100.00;94641.16;5099523;28;20653;-81
2023/10/20 05:47:37;;;;;;;10.53;7.13;;;;;;;12.59;100.00;94621.41;5101825;28;20206;-81
2023/10/20 05:50:04;;;;;;;9.27;6.97;;;;;;;12.58;100.00;94592.47;5102219;28;20673;-81
2023/10/20 05:52:30;;;;;;;11.30;7.50;;;;;;;12.61;100.00;94562.94;5101792;28;20230;-81
2023/10/20 05:54:57;;;;;;;13.03;8.00;;;;;;;12.58;100.00;94560.69;5102501;28;20734;-81
2023/10/20 05:57:27;;;;;;;13.83;8.10;;;;;;;12.60;100.00;94564.75;5102712;28;20231;-81
2023/10/20 05:59:54;;;;;;;13.57;7.80;;;;;;;12.60;100.00;94569.25;5102634;28;20209;-81
2023/10/20 06:02:20;;;;;;;12.17;8.30;;;;;;;12.61;100.00;94581.47;5100998;28;20242;-81
2023/10/20 06:04:47;;;;;;;17.10;9.40;;;;;;;12.60;100.00;94561.31;5101891;28;20557;-81
2023/10/20 06:07:14;;;;;;;16.20;10.17;;;;;;;12.56;100.00;94545.00;5101338;28;20211;-81
2023/10/20 06:09:42;;;;;;;13.23;8.60;;;;;;;12.53;100.00;94531.38;5101253;28;20220;-81
2023/10/20 06:12:10;;;;;;;16.70;9.90;;;;;;;12.50;100.00;94534.41;5097863;28;20226;-81
2023/10/20 06:14:38;;;;;;;15.30;9.20;;;;;;;12.46;100.00;94535.84;5098129;28;20211;-81
2023/10/20 06:17:04;;;;;;;14.53;8.83;;;;;;;12.46;100.00;94527.91;5096734;28;20610;-81
2023/10/20 06:19:32;;;;;;;11.90;8.37;;;;;;;12.39;100.00;94524.41;5097300;28;20706;-81
2023/10/20 06:22:00;;;;;;;14.40;8.80;;;;;;;12.40;100.00;94511.00;5097867;28;20715;-81
2023/10/20 06:24:26;;;;;;;12.97;8.63;;;;;;;12.37;100.00;94494.69;5098484;28;20224;-81
2023/10/20 06:26:53;;;;;;;13.43;8.73;;;;;;;12.29;100.00;94505.50;5098046;28;20209;-81
2023/10/20 06:29:26;;;;;;;12.60;8.50;;;;;;;12.27;100.00;94495.09;5097995;28;20209;-81
2023/10/20 06:31:58;;;;;;;13.00;7.90;;;;;;;12.28;100.00;94488.78;5097143;28;20229;-82
2023/10/20 06:34:25;;;;;;;11.40;7.77;;;;;;;12.27;100.00;94512.81;5097925;28;20681;-81
2023/10/20 06:36:59;;;;;;;12.73;8.43;;;;;;;12.28;100.00;94504.69;5098111;28;20382;-81
2023/10/20 06:39:26;;;;;;;12.80;8.87;;;;;;;12.30;100.00;94499.19;5097479;28;20300;-81
2023/10/20 06:41:52;;;;;;;14.27;9.57;;;;;;;12.32;100.00;94470.66;5097455;28;20258;-81
2023/10/20 06:44:19;;;;;;;17.67;10.13;;;;;;;12.36;100.00;94477.97;5098135;28;20205;-82
2023/10/20 06:46:46;;;;;;;13.60;9.50;;;;;;;12.33;100.00;94459.88;5098237;28;20687;-82
2023/10/20 06:49:18;;;;;;;14.87;8.93;;;;;;;12.32;100.00;94442.38;5098387;28;20209;-81
2023/10/20 06:51:44;;;;;;;16.20;9.87;;;;;;;12.31;100.00;94437.28;5081790;28;20227;-82
2023/10/20 06:54:11;;;;;;;16.23;11.33;;;;;;;12.30;100.00;94440.94;5095536;28;20208;-82
2023/10/20 06:56:38;;;;;;;18.37;11.47;;;;;;;12.31;100.00;94451.34;5095575;28;20231;-82
2023/10/20 06:59:04;;;;;;;20.07;11.43;;;;;;;12.35;100.00;94441.16;5095973;28;20210;-81
2023/10/20 07:01:32;;;;;;;19.80;11.37;;;;;;;12.41;100.00;94427.88;5094783;28;20588;-83
2023/10/20 07:03:58;;;;;;;22.97;12.87;;;;;;;12.47;100.00;94421.75;5094078;28;20299;-81
2023/10/20 07:06:26;;;;;;;20.97;13.27;;;;;;;12.49;100.00;94424.22;5093758;28;20203;-81
2023/10/20 07:08:53;;;;;;;26.00;13.80;;;;;;;12.54;100.00;94430.50;5093720;28;20213;-80
2023/10/20 07:11:19;;;;;;;22.97;13.97;;;;;;;12.54;100.00;94425.19;5093974;28;20590;-83
2023/10/20 07:13:46;;;;;;;29.07;15.93;;;;;;;12.53;100.00;94417.50;5093643;28;20213;-82
2023/10/20 07:16:13;;;;;;;27.27;16.03;;;;;;;12.55;100.00;94407.50;5093570;28;20240;-82
2023/10/20 07:18:39;;;;;;;29.70;16.97;;;;;;;12.57;100.00;94395.66;5094573;28;20210;-83
2023/10/20 07:21:06;;;;;;;30.87;17.23;;;;;;;12.58;100.00;94391.16;5093909;28;20261;-80
2023/10/20 07:23:33;;;;;;;29.03;17.30;;;;;;;12.61;100.00;94388.13;5095580;28;20209;-80
2023/10/20 07:26:00;;;;;;;30.83;17.77;;;;;;;12.64;100.00;94400.94;5095955;28;20227;-80
2023/10/20 07:28:27;;;;;;;32.93;17.70;;;;;;;12.68;100.00;94399.50;5094468;28;20649;-81
2023/10/20 07:30:53;;;;;;;33.23;18.80;;;;;;;12.70;100.00;94402.75;5093891;28;20231;-81
2023/10/20 07:33:20;;;;;;;30.60;18.13;;;;;;;12.73;100.00;94411.13;5095056;28;20203;-83
2023/10/20 07:35:47;;;;;;;32.87;18.13;;;;;;;12.74;100.00;94411.91;5094977;28;20210;-82
2023/10/20 07:38:14;;;;;;;31.37;18.67;;;;;;;12.73;100.00;94403.16;5095649;28;20227;-84
2023/10/20 07:40:41;;;;;;;32.07;18.43;;;;;;;12.75;100.00;94400.28;5096031;28;20201;-84
2023/10/20 07:43:08;;;;;;;31.17;17.93;;;;;;;12.83;100.00;94411.47;5095024;28;20210;-76
2023/10/20 07:45:38;;;;;;;29.80;18.57;;;;;;;12.87;100.00;94395.97;5094337;28;20296;-83
2023/10/20 07:48:06;;;;;;;30.93;19.17;;;;;;;12.91;100.00;94391.88;5095127;28;20268;-82
2023/10/20 07:50:32;;;;;;;31.87;18.37;;;;;;;12.91;100.00;94386.59;5095592;28;20207;-82
2023/10/20 07:52:59;;;;;;;32.17;18.47;;;;;;;12.99;100.00;94381.91;5098061;28;20207;-81
2023/10/20 07:55:26;;;;;;;28.83;18.03;;;;;;;12.99;100.00;94391.66;5098032;28;20296;-82
2023/10/20 07:57:55;;;;;;;28.83;17.73;;;;;;;13.02;100.00;94384.09;5097744;28;20591;-82
2023/10/20 08:00:21;;;;;;;27.20;17.60;;;;;;;13.07;100.00;94402.03;5098029;28;20211;-83
2023/10/20 08:02:49;;;;;;;26.70;17.57;;;;;;;13.13;100.00;94401.16;5097096;28;20241;-81
2023/10/20 08:05:16;;;;;;;23.60;16.47;;;;;;;13.15;100.00;94393.84;5098870;28;20230;-82
2023/10/20 08:07:43;;;;;;;24.30;16.20;;;;;;;13.20;100.00;94391.38;5098495;28;20202;-79
2023/10/20 08:10:09;;;;;;;21.20;15.07;;;;;;;13.17;100.00;94397.91;5098090;28;20210;-79
2023/10/20 08:12:36;;;;;;;22.80;15.90;;;;;;;13.19;100.00;94408.28;5097023;28;20312;-81
2023/10/20 08:15:05;;;;;;;22.37;15.37;;;;;;;13.19;100.00;94416.22;5096743;28;20214;-80
2023/10/20 08:17:32;;;;;;;20.47;15.07;;;;;;;13.22;100.00;94424.59;5097404;28;20244;-80
2023/10/20 08:19:59;;;;;;;18.13;13.37;;;;;;;13.27;100.00;94429.28;5096485;28;20213;-83
2023/10/20 08:22:25;;;;;;;17.70;12.90;;;;;;;13.31;100.00;94435.75;5095870;28;20227;-82
2023/10/20 08:24:52;;;;;;;18.02;14.73;;;;;;;13.35;100.00;94444.94;5095232;28;20893;-83
2023/10/20 08:27:19;;;;;;;18.10;12.80;;;;;;;13.33;100.00;94439.03;5096080;28;20209;-82
2023/10/20 08:29:46;;;;;;;17.20;13.67;;;;;;;13.33;100.00;94462.91;5096455;28;20207;-82
2023/10/20 08:32:14;;;;;;;18.87;13.73;;;;;;;13.37;100.00;94472.84;5095552;28;20239;-81
2023/10/20 08:34:41;;;;;;;24.23;14.83;;;;;;;13.47;100.00;94480.34;5096389;28;20220;-82
2023/10/20 08:37:07;;;;;;;20.50;14.43;;;;;;;13.52;100.00;94480.53;5095899;28;20283;-76
2023/10/20 08:39:34;;;;;;;20.23;14.47;;;;;;;13.58;100.00;94479.69;5094753;28;20235;-81
2023/10/20 08:42:02;;;;;;;18.27;13.97;;;;;;;13.63;100.00;94495.78;5096629;28;20246;-81
2023/10/20 08:44:30;;;;;;;18.07;13.83;;;;;;;13.68;100.00;94507.38;5096502;28;20236;-82
2023/10/20 08:46:58;;;;;;;21.23;15.07;;;;;;;13.76;100.00;94514.28;5096360;28;20235;-82
2023/10/20 08:49:27;;;;;;;18.70;13.60;;;;;;;13.83;100.00;94513.25;5097113;28;20210;-81
2023/10/20 08:51:56;;;;;;;19.27;13.83;;;;;;;13.91;100.00;94523.59;5097370;28;20412;-81
2023/10/20 08:54:23;;;;;;;18.17;14.13;;;;;;;14.03;100.00;94542.28;5098000;28;20208;-81
2023/10/20 08:56:50;;;;;;;19.53;14.67;;;;;;;14.13;100.00;94579.81;5097644;28;20222;-81
2023/10/20 08:59:17;;;;;;;17.90;13.27;;;;;;;14.20;100.00;94601.88;5097166;28;20662;-82
2023/10/20 09:01:44;;;;;;;18.70;13.27;;;;;;;14.20;100.00;94607.19;5096299;28;20235;-82
2023/10/20 09:04:21;;;;;;;17.77;12.70;;;;;;;14.14;100.00;94637.22;5097538;28;20215;-82
2023/10/20 09:06:49;;;;;;;15.67;12.60;;;;;;;14.09;100.00;94639.69;5097269;28;20261;-82
2023/10/20 09:09:22;;;;;;;16.63;12.07;;;;;;;14.04;100.00;94644.81;5097199;28;20203;-81
2023/10/20 09:11:49;;;;;;;16.43;11.63;;;;;;;14.02;100.00;94652.16;5097102;28;20712;-81
2023/10/20 09:14:16;;;;;;;15.23;11.03;;;;;;;14.07;100.00;94657.66;5096935;28;20259;-81
2023/10/20 09:16:43;;;;;;;14.50;11.30;;;;;;;14.13;100.00;94678.88;5097052;28;20238;-82
2023/10/20 09:19:11;;;;;;;16.13;11.57;;;;;;;14.18;100.00;94662.31;5097178;28;20225;-82
2023/10/20 09:21:39;;;;;;;15.50;12.00;;;;;;;14.21;100.00;94641.50;5097010;28;20387;-81
2023/10/20 09:24:09;;;;;;;16.17;11.73;;;;;;;14.18;100.00;94649.03;5096893;28;20693;-80
2023/10/20 09:26:37;;;;;;;17.27;12.27;;;;;;;14.19;100.00;94653.34;5101651;28;20268;-81
2023/10/20 09:29:05;;;;;;;17.50;12.73;;;;;;;14.24;100.00;94640.25;5097849;28;20203;-82
2023/10/20 09:31:32;;;;;;;17.20;12.00;;;;;;;14.29;100.00;94627.16;5102542;28;20671;-83
2023/10/20 09:33:59;;;;;;;16.97;13.03;;;;;;;14.27;100.00;94623.88;5100269;28;20550;-84
2023/10/20 09:36:29;;;;;;;16.10;11.97;;;;;;;14.28;100.00;94646.75;5101734;28;20232;-82
2023/10/20 09:38:57;;;;;;;16.47;11.77;;;;;;;14.30;100.00;94650.03;5099067;28;20207;-85
2023/10/20 09:41:27;;;;;;;14.67;11.53;;;;;;;14.30;100.00;94647.38;5097792;28;20598;-84
2023/10/20 09:44:02;;;;;;;16.17;11.60;;;;;;;14.29;100.00;94648.41;5095868;28;20202;-85
2023/10/20 09:46:41;;;;;;;19.57;13.23;;;;;;;14.39;100.00;94633.63;5097902;28;20506;-84
2023/10/20 09:49:14;;;;;;;16.50;12.80;;;;;;;14.53;100.00;94645.81;5098241;28;20654;-83
2023/10/20 09:51:44;;;;;;;18.47;13.83;;;;;;;14.74;100.00;94669.38;5097864;28;20231;-83
2023/10/20 09:54:11;;;;;;;16.40;12.13;;;;;;;14.93;100.00;94692.38;5100511;28;20207;-82
2023/10/20 09:56:40;;;;;;;14.93;11.30;;;;;;;15.04;100.00;94698.81;5101023;28;20213;-81
2023/10/20 09:59:08;;;;;;;15.50;12.17;;;;;;;15.07;100.00;94707.19;5101172;28;20552;-83
2023/10/20 10:01:34;;;;;;;14.37;11.63;;;;;;;15.14;100.00;94713.25;5101619;28;20246;-83
2023/10/20 10:04:03;;;;;;;15.00;11.30;;;;;;;15.24;100.00;94707.44;5101214;28;20204;-82
2023/10/20 10:06:35;;;;;;;15.10;11.73;;;;;;;15.36;100.00;94716.41;5100566;28;20219;-82
2023/10/20 10:09:03;;;;;;;15.40;11.70;;;;;;;15.45;100.00;94736.38;5101448;28;20209;-82
2023/10/20 10:11:32;;;;;;;13.60;10.53;;;;;;;15.40;100.00;94746.88;5101637;28;21053;-84
2023/10/20 10:14:04;;;;;;;12.43;10.33;;;;;;;15.38;100.00;94752.41;5100624;28;20209;-83
2023/10/20 10:16:31;;;;;;;12.87;10.43;;;;;;;15.28;100.00;94745.91;5100940;28;20197;-84
2023/10/20 10:19:07;;;;;;;14.40;10.83;;;;;;;15.29;100.00;94747.53;5101381;28;20216;-82
2023/10/20 10:21:37;;;;;;;12.70;9.67;;;;;;;15.27;100.00;94744.28;5100008;28;20229;-84
2023/10/20 10:24:18;;;;;;;11.30;9.37;;;;;;;15.36;100.00;94751.81;5100471;28;20207;-82
2023/10/20 10:26:46;;;;;;;11.07;8.80;;;;;;;15.38;100.00;94748.91;5099240;28;20743;-83
2023/10/20 10:29:14;;;;;;;11.33;8.70;;;;;;;15.45;100.00;94768.31;5099975;28;20210;-83
2023/10/20 10:31:41;;;;;;;9.57;8.10;;;;;;;15.57;100.00;94761.25;5097121;28;20233;-82
2023/10/20 10:34:09;;;;;;;8.93;7.47;;;;;;;15.62;100.00;94770.22;5098377;28;20699;-82
2023/10/20 10:36:43;;;;;;;9.20;7.50;;;;;;;15.70;100.00;94767.25;5101477;28;20228;-83
2023/10/20 10:39:21;;;;;;;9.83;7.70;;;;;;;15.75;100.00;94763.94;5099808;28;20311;-82
2023/10/20 10:41:48;;;;;;;8.97;7.10;;;;;;;15.84;100.00;94758.16;5101914;28;20279;-83
2023/10/20 10:44:16;;;;;;;9.43;6.77;;;;;;;15.95;100.00;94759.25;5101273;28;20296;-82
2023/10/20 10:46:42;;;;;;;7.70;6.50;;;;;;;16.06;100.00;94771.88;5083816;28;20206;-80
2023/10/20 10:49:10;;;;;;;7.57;6.77;;;;;;;16.14;100.00;94775.03;5099115;28;20217;-83
2023/10/20 10:51:43;;;;;;;8.53;6.47;;;;;;;16.19;100.00;94765.34;5098460;28;20230;-83
2023/10/20 10:54:10;;;;;;;7.67;6.33;;;;;;;16.26;100.00;94773.25;5099323;28;20214;-84
2023/10/20 10:56:37;;;;;;;8.10;6.10;;;;;;;16.29;100.00;94778.16;5098934;28;20210;-83
2023/10/20 10:59:03;;;;;;;8.00;6.57;;;;;;;16.22;100.00;94780.88;5099663;28;20244;-83
2023/10/20 11:01:32;;;;;;;7.73;6.30;;;;;;;16.24;100.00;94791.31;5100916;28;20250;-82
2023/10/20 11:03:59;;;;;;;7.30;5.70;;;;;;;16.30;100.00;94779.78;5099230;28;20190;-81
2023/10/20 11:06:26;;;;;;;6.60;5.90;;;;;;;16.29;100.00;94778.97;5100800;28;20224;-82
2023/10/20 11:08:53;;;;;;;5.90;5.20;;;;;;;16.26;100.00;94790.06;5098744;28;20209;-82
2023/10/20 11:11:20;;;;;;;6.10;4.80;;;;;;;16.33;100.00;94796.13;5097997;28;20674;-82
2023/10/20 11:13:46;;;;;;;6.63;5.57;;;;;;;16.34;100.00;94800.44;5097791;28;20729;-82
2023/10/20 11:16:14;;;;;;;6.60;4.67;;;;;;;16.40;100.00;94804.91;5099022;28;20697;-82
2023/10/20 11:18:46;;;;;;;6.47;4.77;;;;;;;16.42;100.00;94802.84;5100915;28;20249;-81
2023/10/20 11:21:13;;;;;;;5.67;4.50;;;;;;;16.42;100.00;94802.84;5103049;28;20230;-82
2023/10/20 11:23:39;;;;;;;4.00;3.60;;;;;;;16.43;100.00;94801.81;5101545;28;20563;-82
2023/10/20 11:26:14;;;;;;;4.10;3.70;;;;;;;16.46;100.00;94812.00;5103866;28;20220;-80
2023/10/20 11:28:41;;;;;;;3.60;3.20;;;;;;;16.46;100.00;94828.00;5103914;28;20209;-82
2023/10/20 11:31:07;;;;;;;2.43;2.13;;;;;;;16.49;100.00;94819.59;5102268;28;20253;-82
2023/10/20 11:33:34;;;;;;;2.40;2.20;;;;;;;16.52;100.00;94829.78;5101401;28;20210;-82
2023/10/20 11:36:04;;;;;;;1.23;1.10;;;;;;;16.56;100.00;94822.97;5103108;28;20796;-82
2023/10/20 11:38:32;;;;;;;1.00;0.73;;;;;;;16.57;100.00;94823.81;5103315;28;20328;-81
2023/10/20 11:40:59;;;;;;;1.00;0.90;;;;;;;16.58;100.00;94820.91;5102894;28;20229;-81